Terminal Aerodrome Forecast
Issued by NWS

Home | Current Version | Previous Version | Text Only | Print | Product List | Glossary On
Versions: 1 2 3 4 5 6 7 8 9 10 11 12 13 14
000
FTUS42 TJSJ 300513 AAA
TAFISX
TAF AMD
TISX 300513Z 3005/3024 03004KT P6SM VCTS SCT020 BKN040CB BKN090
      TEMPO 3005/3006 VRB10G18KT 2SM -TSRA SCT017 BKN025CB BKN060
     FM301330 13010KT P6SM VCTS SCT022CB BKN040
     FM302300 09006KT P6SM SCT025 BKN070=

USA.gov is the U.S. government's official web portal to all federal, state and local government web resources and services.